Time;durP1;ratioP1;P1;durP2;ratioP2;P2;SDS_P1;SDS_P2;PMS_P1;PMS_P2;Temp;Humidity;BMP_temperature;BMP_pressure;BME280_temperature;BME280_humidity;BME280_pressure;Samples;Min_cycle;Max_cycle;Signal;HPM_P1;HPM_P2
2023/06/06 00:04:52;;;;;;;10.75;7.35;;;;;;;11.78;100.00;96810.41;10457995;28;20227;-66
2023/06/06 00:09:53;;;;;;;8.13;6.75;;;;;;;11.87;100.00;96807.81;10457709;28;20204;-67
2023/06/06 00:14:54;;;;;;;12.02;7.88;;;;;;;12.00;100.00;96810.78;10457533;28;20199;-66
2023/06/06 00:19:56;;;;;;;11.95;8.27;;;;;;;12.03;100.00;96817.53;10456926;28;20239;-67
2023/06/06 00:24:56;;;;;;;10.48;8.23;;;;;;;12.11;100.00;96820.97;10457087;28;20188;-67
2023/06/06 00:29:57;;;;;;;8.27;7.20;;;;;;;12.23;100.00;96820.66;10457019;28;20223;-67
2023/06/06 00:34:57;;;;;;;12.95;6.93;;;;;;;12.27;100.00;96833.28;10456763;28;20191;-67
2023/06/06 00:39:57;;;;;;;10.10;7.47;;;;;;;12.10;100.00;96824.59;10457401;28;20212;-67
2023/06/06 00:44:58;;;;;;;9.43;8.52;;;;;;;12.13;100.00;96821.63;10457304;28;20202;-67
2023/06/06 00:49:58;;;;;;;10.15;7.22;;;;;;;12.20;100.00;96811.28;10456148;28;20200;-66
2023/06/06 00:54:59;;;;;;;9.20;7.47;;;;;;;12.16;100.00;96807.34;10456094;28;20188;-66
2023/06/06 00:59:59;;;;;;;7.55;6.72;;;;;;;12.16;100.00;96798.63;10437421;28;20227;-66
2023/06/06 01:05:01;;;;;;;13.02;7.40;;;;;;;12.09;100.00;96799.28;10455695;28;20179;-66
2023/06/06 01:10:02;;;;;;;7.20;6.18;;;;;;;12.10;100.00;96794.88;10455271;28;20212;-66
2023/06/06 01:15:26;;;;;;;10.73;7.00;;;;;;;12.09;100.00;96801.91;10455199;28;20479;-66
2023/06/06 01:20:30;;;;;;;7.93;7.03;;;;;;;12.09;100.00;96788.78;10478285;23;20242;-68
2023/06/06 01:25:34;;;;;;;8.88;6.75;;;;;;;12.03;100.00;96799.13;10494384;28;20602;-69
2023/06/06 01:30:34;;;;;;;9.82;7.35;;;;;;;12.00;100.00;96792.41;10493958;28;20218;-69
2023/06/06 01:35:44;;;;;;;9.93;7.28;;;;;;;11.98;100.00;96789.13;10494062;28;20191;-70
2023/06/06 01:40:47;;;;;;;10.20;7.47;;;;;;;11.99;100.00;96776.81;10493578;28;20223;-69
2023/06/06 01:45:48;;;;;;;10.77;6.68;;;;;;;11.99;100.00;96787.31;10494065;28;20191;-70
2023/06/06 01:50:49;;;;;;;8.45;6.72;;;;;;;11.92;100.00;96776.63;10476972;28;20207;-70
2023/06/06 01:55:51;;;;;;;10.65;7.80;;;;;;;11.93;100.00;96779.13;10495046;28;20191;-70
2023/06/06 02:00:51;;;;;;;10.57;7.60;;;;;;;11.93;100.00;96778.31;10493311;28;20697;-69
2023/06/06 02:05:51;;;;;;;9.80;7.93;;;;;;;11.86;100.00;96770.22;10493265;28;20288;-69
2023/06/06 02:10:52;;;;;;;9.07;7.43;;;;;;;11.85;100.00;96770.38;10494438;28;20215;-69
2023/06/06 02:15:52;;;;;;;11.45;8.55;;;;;;;11.80;100.00;96772.69;10492940;28;20179;-68
2023/06/06 02:20:52;;;;;;;13.45;8.32;;;;;;;11.77;100.00;96779.06;10492542;28;20243;-68
2023/06/06 02:25:53;;;;;;;11.10;8.98;;;;;;;11.82;100.00;96781.19;10494208;28;20187;-69
2023/06/06 02:30:53;;;;;;;18.80;9.95;;;;;;;11.79;100.00;96792.84;10492729;28;20255;-68
2023/06/06 02:35:54;;;;;;;12.77;9.68;;;;;;;11.79;100.00;96792.84;10493905;28;20193;-69
2023/06/06 02:40:55;;;;;;;13.20;10.68;;;;;;;11.79;100.00;96798.09;10493720;28;20218;-69
2023/06/06 02:45:55;;;;;;;13.50;10.80;;;;;;;11.81;100.00;96797.91;10492291;28;20195;-69
2023/06/06 02:50:56;;;;;;;15.02;11.77;;;;;;;11.88;100.00;96804.19;10454707;28;20298;-69
2023/06/06 02:55:56;;;;;;;12.10;10.00;;;;;;;11.97;100.00;96813.72;10452057;28;20258;-69
2023/06/06 03:00:58;;;;;;;16.70;11.07;;;;;;;11.93;100.00;96810.63;10450592;28;20224;-69
2023/06/06 03:05:58;;;;;;;16.60;11.02;;;;;;;11.95;100.00;96815.72;10450858;28;20207;-69
2023/06/06 03:10:59;;;;;;;13.05;11.73;;;;;;;11.91;100.00;96811.72;10451595;28;20199;-69
2023/06/06 03:16:00;;;;;;;13.52;11.75;;;;;;;11.98;100.00;96818.00;10450399;28;20206;-69
2023/06/06 03:21:00;;;;;;;14.30;12.13;;;;;;;11.96;100.00;96817.38;10454104;28;20234;-69
2023/06/06 03:26:06;;;;;;;13.50;11.38;;;;;;;11.95;100.00;96818.34;10458846;28;20200;-68
2023/06/06 03:31:07;;;;;;;15.40;12.00;;;;;;;12.01;100.00;96822.94;10459319;28;20203;-68
2023/06/06 03:36:26;;;;;;;12.43;11.10;;;;;;;12.00;100.00;96825.72;10458001;28;20192;-68
2023/06/06 03:41:27;;;;;;;14.07;10.38;;;;;;;12.01;100.00;96822.94;10457359;28;20223;-67
2023/06/06 03:46:28;;;;;;;11.93;10.63;;;;;;;12.05;100.00;96818.16;10457472;28;20188;-68
2023/06/06 03:51:28;;;;;;;13.38;11.30;;;;;;;12.03;100.00;96830.66;10457144;28;20238;-68
2023/06/06 03:56:29;;;;;;;14.80;11.57;;;;;;;12.04;100.00;96835.75;10456995;28;20572;-69
2023/06/06 04:01:32;;;;;;;15.70;12.70;;;;;;;12.09;100.00;96841.31;10457982;28;20587;-68
2023/06/06 04:06:32;;;;;;;15.60;12.70;;;;;;;12.07;100.00;96840.66;10456629;28;20184;-69
2023/06/06 04:11:33;;;;;;;13.98;12.57;;;;;;;12.06;100.00;96841.63;10456423;28;20195;-69
2023/06/06 04:16:35;;;;;;;14.05;12.55;;;;;;;12.13;100.00;96842.63;10456455;28;20202;-68
2023/06/06 04:21:36;;;;;;;14.02;11.57;;;;;;;12.13;100.00;96850.50;10455680;28;20337;-68
2023/06/06 04:26:37;;;;;;;13.90;12.50;;;;;;;12.14;100.00;96848.69;10456302;28;20286;-68
2023/06/06 04:31:40;;;;;;;17.67;12.40;;;;;;;12.23;100.00;96857.41;10454175;28;20200;-68
2023/06/06 04:36:41;;;;;;;17.98;12.93;;;;;;;12.29;100.00;96859.38;10455904;28;20637;-68
2023/06/06 04:41:43;;;;;;;13.88;12.05;;;;;;;12.36;100.00;96855.13;10455183;28;20228;-68
2023/06/06 04:46:43;;;;;;;13.75;12.20;;;;;;;12.42;100.00;96851.84;10455088;28;20192;-68
2023/06/06 04:51:45;;;;;;;12.75;11.13;;;;;;;12.40;100.00;96847.72;10456376;28;20655;-68
2023/06/06 04:56:47;;;;;;;11.95;10.75;;;;;;;12.50;100.00;96853.66;10455998;28;20292;-67
2023/06/06 05:01:48;;;;;;;11.02;9.80;;;;;;;12.61;100.00;96845.41;10468459;28;20855;-68
2023/06/06 05:06:48;;;;;;;17.05;10.77;;;;;;;12.58;100.00;96850.19;10463533;28;20191;-68
2023/06/06 05:11:51;;;;;;;13.88;10.00;;;;;;;12.66;100.00;96842.28;10455301;28;20670;-68
2023/06/06 05:16:53;;;;;;;9.48;8.27;;;;;;;12.66;100.00;96845.75;10455044;28;20269;-68
2023/06/06 05:21:53;;;;;;;9.13;8.10;;;;;;;12.70;100.00;96840.97;10495306;28;20234;-67
2023/06/06 05:26:53;;;;;;;10.63;8.50;;;;;;;12.60;100.00;96835.91;10496244;28;20553;-68
2023/06/06 05:31:54;;;;;;;10.57;9.25;;;;;;;12.62;100.00;96843.63;10495690;28;20607;-68
2023/06/06 05:36:54;;;;;;;11.30;8.70;;;;;;;12.66;100.00;96847.53;10495649;28;20618;-68
2023/06/06 05:41:55;;;;;;;10.02;8.35;;;;;;;12.67;100.00;96852.63;10494886;28;20304;-68
2023/06/06 05:46:55;;;;;;;9.25;8.35;;;;;;;12.77;100.00;96859.53;10494846;28;20191;-68
2023/06/06 05:51:55;;;;;;;8.73;7.82;;;;;;;12.74;100.00;96847.56;10527630;28;20199;-68
2023/06/06 05:56:57;;;;;;;10.32;8.02;;;;;;;12.78;100.00;96853.28;10508847;28;20194;-68
2023/06/06 06:01:57;;;;;;;9.45;8.35;;;;;;;13.03;100.00;96859.31;10517052;28;20765;-68
2023/06/06 06:06:57;;;;;;;9.07;8.18;;;;;;;12.98;100.00;96857.19;10498093;28;20274;-68
2023/06/06 06:11:58;;;;;;;9.10;8.20;;;;;;;13.00;100.00;96854.38;10494547;28;20180;-68
2023/06/06 06:16:58;;;;;;;9.07;8.13;;;;;;;13.03;100.00;96846.16;10478286;28;20197;-67
2023/06/06 06:21:58;;;;;;;8.73;7.55;;;;;;;13.06;100.00;96843.19;10494011;28;20215;-68
2023/06/06 06:26:59;;;;;;;7.80;7.00;;;;;;;13.01;100.00;96840.25;10494633;28;20192;-68
2023/06/06 06:31:59;;;;;;;9.43;8.52;;;;;;;13.09;100.00;96847.31;10494552;28;20268;-68
2023/06/06 06:37:01;;;;;;;11.57;8.85;;;;;;;13.18;100.00;96841.88;10494487;28;20206;-68
2023/06/06 06:42:01;;;;;;;9.70;8.20;;;;;;;13.27;100.00;96845.25;10475778;28;20734;-68
2023/06/06 06:47:14;;;;;;;8.75;7.85;;;;;;;13.28;100.00;96840.84;10476869;28;20207;-68
2023/06/06 06:52:17;;;;;;;9.35;8.45;;;;;;;13.44;100.00;96848.69;10499862;28;20190;-68
2023/06/06 06:57:19;;;;;;;8.90;8.00;;;;;;;13.59;100.00;96846.16;10558758;28;20224;-68
2023/06/06 07:02:23;;;;;;;7.55;6.78;;;;;;;13.47;100.00;96843.06;10582865;28;20220;-68
2023/06/06 07:07:24;;;;;;;8.63;7.57;;;;;;;13.55;100.00;96836.94;10553992;28;20214;-68
2023/06/06 07:12:25;;;;;;;9.13;8.02;;;;;;;13.52;100.00;96840.75;10520706;28;20189;-69
2023/06/06 07:17:26;;;;;;;9.18;8.27;;;;;;;13.55;100.00;96844.84;10522668;28;20227;-68
2023/06/06 07:22:26;;;;;;;8.80;7.95;;;;;;;13.67;100.00;96842.66;10466019;22;20334;-60
2023/06/06 07:27:27;;;;;;;9.07;8.18;;;;;;;13.79;100.00;96840.47;10426891;28;20208;-58
2023/06/06 07:32:27;;;;;;;9.27;8.38;;;;;;;13.78;100.00;96829.09;10416539;28;20247;-61
2023/06/06 07:37:28;;;;;;;7.63;6.90;;;;;;;13.71;100.00;96834.25;10450266;28;20271;-57
2023/06/06 07:42:28;;;;;;;8.20;7.40;;;;;;;13.71;100.00;96830.78;10448240;28;20233;-59
2023/06/06 07:47:29;;;;;;;8.30;7.57;;;;;;;13.85;100.00;96826.59;10420759;28;20195;-58
2023/06/06 07:52:32;;;;;;;7.00;6.32;;;;;;;13.82;100.00;96821.69;10455155;28;20203;-57
2023/06/06 07:57:33;;;;;;;7.75;7.03;;;;;;;13.84;100.00;96820.53;10449643;28;20206;-61
2023/06/06 08:02:33;;;;;;;11.25;7.15;;;;;;;13.81;100.00;96806.88;10454698;28;20230;-61
2023/06/06 08:07:38;;;;;;;8.30;7.30;;;;;;;13.73;100.00;96813.00;10454297;28;20188;-61
2023/06/06 08:12:38;;;;;;;8.35;7.55;;;;;;;13.80;100.00;96807.84;10454703;28;20211;-59
2023/06/06 08:17:39;;;;;;;9.07;8.18;;;;;;;13.72;100.00;96809.56;10452377;28;20681;-58
2023/06/06 08:22:47;;;;;;;9.23;7.85;;;;;;;13.91;100.00;96804.84;10454815;28;20235;-60
2023/06/06 08:27:48;;;;;;;7.38;6.43;;;;;;;13.80;100.00;96802.59;10454352;28;20283;-60
2023/06/06 08:32:50;;;;;;;8.50;6.72;;;;;;;13.83;100.00;96795.19;10454102;28;20322;-59
2023/06/06 08:37:50;;;;;;;12.35;9.52;;;;;;;13.82;100.00;96804.06;10438782;28;20195;-60
2023/06/06 08:42:52;;;;;;;12.63;9.70;;;;;;;13.69;100.00;96811.69;10435410;28;20252;-60
2023/06/06 08:47:54;;;;;;;12.98;8.25;;;;;;;13.72;100.00;96825.34;10445589;28;20674;-62
2023/06/06 08:52:55;;;;;;;9.27;7.90;;;;;;;13.83;100.00;96829.41;10453503;28;20219;-60
2023/06/06 08:57:56;;;;;;;8.90;8.00;;;;;;;13.83;100.00;96828.59;10450668;28;20211;-61
2023/06/06 09:02:59;;;;;;;9.45;7.85;;;;;;;13.88;100.00;96827.06;10494584;28;20603;-60
2023/06/06 09:08:01;;;;;;;10.13;8.88;;;;;;;13.80;100.00;96818.38;10493864;28;20187;-61
2023/06/06 09:13:01;;;;;;;10.13;9.15;;;;;;;13.77;100.00;96824.84;10467034;28;20206;-57
2023/06/06 09:18:02;;;;;;;11.48;10.38;;;;;;;13.88;100.00;96840.22;10493274;28;20213;-58
2023/06/06 09:23:03;;;;;;;13.07;11.60;;;;;;;13.85;100.00;96840.56;10493251;28;20300;-59
2023/06/06 09:28:03;;;;;;;11.85;10.65;;;;;;;13.64;100.00;96837.75;10493328;28;20275;-59
2023/06/06 09:33:04;;;;;;;20.88;18.38;;;;;;;13.67;100.00;96854.00;10456420;28;20222;-59
2023/06/06 09:38:15;;;;;;;20.40;17.60;;;;;;;13.75;100.00;96861.03;10450456;28;20214;-60
2023/06/06 09:43:16;;;;;;;15.75;14.25;;;;;;;13.75;100.00;96855.75;10427159;28;20299;-60
2023/06/06 09:48:24;;;;;;;18.27;16.05;;;;;;;13.80;100.00;96864.00;10427710;28;20192;-60
2023/06/06 09:53:25;;;;;;;16.13;14.57;;;;;;;13.95;100.00;96869.34;10450812;28;20208;-62
2023/06/06 09:58:26;;;;;;;16.85;15.05;;;;;;;14.16;100.00;96858.16;10436638;28;20212;-61
2023/06/06 10:03:26;;;;;;;15.90;14.20;;;;;;;14.52;100.00;96856.75;10436760;28;20327;-59
2023/06/06 10:08:27;;;;;;;17.40;14.48;;;;;;;14.56;100.00;96847.47;10432427;28;20211;-60
2023/06/06 10:13:28;;;;;;;18.15;14.27;;;;;;;14.57;100.00;96841.22;10427826;28;20185;-61
2023/06/06 10:18:29;;;;;;;16.23;14.55;;;;;;;14.69;100.00;96850.34;10414429;28;20195;-59
2023/06/06 10:23:30;;;;;;;14.88;13.52;;;;;;;14.61;100.00;96832.78;10432095;28;20226;-61
2023/06/06 10:28:32;;;;;;;15.85;13.35;;;;;;;14.67;100.00;96839.19;10449710;28;20199;-62
2023/06/06 10:33:41;;;;;;;13.55;11.63;;;;;;;14.94;100.00;96844.84;10446795;28;20192;-61
2023/06/06 10:39:19;;;;;;;9.45;8.52;;;;;;;15.01;100.00;96837.00;10421221;28;20292;-60
2023/06/06 10:44:37;;;;;;;7.07;6.35;;;;;;;14.89;100.00;96840.09;10417624;28;20228;-61
2023/06/06 10:49:37;;;;;;;5.53;5.03;;;;;;;15.48;100.00;96822.59;10434445;28;20701;-63
2023/06/06 10:54:38;;;;;;;3.30;3.00;;;;;;;15.60;100.00;96786.78;10431525;28;20294;-62
2023/06/06 10:59:38;;;;;;;3.80;3.50;;;;;;;16.28;100.00;96767.13;10449138;28;20226;-62
2023/06/06 11:04:39;;;;;;;5.75;3.90;;;;;;;16.34;100.00;96767.22;10429205;28;20219;-61
2023/06/06 11:09:41;;;;;;;4.00;3.60;;;;;;;16.42;100.00;96771.53;10449376;28;20299;-59
2023/06/06 11:15:00;;;;;;;4.25;2.50;;;;;;;15.93;100.00;96749.38;10430606;28;20195;-60
2023/06/06 11:20:01;;;;;;;6.20;3.33;;;;;;;15.93;100.00;96751.22;10445308;28;20223;-63
2023/06/06 11:25:02;;;;;;;6.43;2.58;;;;;;;15.78;100.00;96753.91;10447147;28;20204;-60
2023/06/06 11:30:04;;;;;;;3.72;3.10;;;;;;;15.81;100.00;96742.97;10445668;28;20212;-62
2023/06/06 11:35:07;;;;;;;3.40;2.78;;;;;;;16.35;100.00;96752.16;10448475;28;20234;-62
2023/06/06 11:40:08;;;;;;;4.80;3.13;;;;;;;16.21;100.00;96738.81;10450002;28;20216;-63
2023/06/06 11:45:15;;;;;;;5.25;3.20;;;;;;;16.34;100.00;96747.88;10457231;28;20196;-61
2023/06/06 11:50:26;;;;;;;3.83;2.65;;;;;;;16.95;100.00;96736.69;10456344;28;20224;-62
2023/06/06 11:55:37;;;;;;;3.92;3.08;;;;;;;17.20;100.00;96738.84;10456704;28;20207;-63
2023/06/06 12:00:37;;;;;;;4.10;3.00;;;;;;;17.38;100.00;96720.56;10455113;28;20219;-62
2023/06/06 12:05:38;;;;;;;4.05;3.08;;;;;;;17.67;100.00;96726.53;10456023;28;20192;-62
2023/06/06 12:10:38;;;;;;;3.42;2.65;;;;;;;17.55;100.00;96728.13;10456168;28;20658;-59
2023/06/06 12:15:46;;;;;;;3.40;2.47;;;;;;;18.08;100.00;96730.88;10455657;28;20187;-60
2023/06/06 12:20:47;;;;;;;6.72;2.88;;;;;;;17.24;100.00;96711.78;10454627;28;20335;-60
2023/06/06 12:25:53;;;;;;;3.35;2.80;;;;;;;16.52;100.00;96716.50;10453955;28;20757;-61
2023/06/06 12:30:54;;;;;;;3.40;2.88;;;;;;;16.69;100.00;96726.75;10455307;28;20257;-63
2023/06/06 12:36:13;;;;;;;6.45;5.95;;;;;;;16.68;100.00;96728.59;10455687;28;20196;-62
2023/06/06 12:41:14;;;;;;;5.50;3.40;;;;;;;16.34;100.00;96738.13;10432114;28;20227;-61
2023/06/06 12:46:14;;;;;;;7.85;3.67;;;;;;;16.26;100.00;96743.53;10414921;28;20318;-61
2023/06/06 12:51:15;;;;;;;3.90;3.13;;;;;;;16.67;100.00;96750.75;10432711;28;20256;-60
2023/06/06 12:56:15;;;;;;;4.80;2.97;;;;;;;17.51;100.00;96732.22;10441296;28;20283;-61
2023/06/06 13:01:15;;;;;;;3.45;2.80;;;;;;;18.51;100.00;96727.00;10436054;28;20209;-61
2023/06/06 13:06:16;;;;;;;4.22;2.60;;;;;;;17.82;100.00;96708.66;10430532;28;20312;-59
2023/06/06 13:11:17;;;;;;;3.47;2.30;;;;;;;17.73;100.00;96720.44;10441394;28;20619;-61
2023/06/06 13:16:17;;;;;;;3.08;2.10;;;;;;;18.42;100.00;96718.44;10453798;28;20188;-63
2023/06/06 13:21:18;;;;;;;3.88;3.35;;;;;;;17.45;100.00;96723.22;10521594;22;20234;-68
2023/06/06 13:26:19;;;;;;;4.32;2.92;;;;;;;17.08;100.00;96731.44;10573958;28;20286;-68
2023/06/06 13:31:20;;;;;;;2.83;2.60;;;;;;;16.68;100.00;96731.22;10596362;27;20350;-69
2023/06/06 13:36:20;;;;;;;5.65;2.80;;;;;;;16.97;100.00;96723.25;10620690;27;20185;-68
2023/06/06 13:41:21;;;;;;;2.95;2.70;;;;;;;17.34;100.00;96716.69;10620394;27;20239;-69
2023/06/06 13:46:22;;;;;;;3.10;2.80;;;;;;;16.76;100.00;96728.41;10619963;27;20208;-68
2023/06/06 13:51:23;;;;;;;3.75;2.95;;;;;;;17.08;100.00;96707.63;10619647;27;20209;-68
2023/06/06 13:56:25;;;;;;;3.40;3.10;;;;;;;17.19;100.00;96710.72;10619241;27;20185;-67
2023/06/06 14:01:25;;;;;;;5.65;3.13;;;;;;;16.74;100.00;96708.47;10617759;27;20213;-67
2023/06/06 14:06:26;;;;;;;3.65;3.35;;;;;;;17.09;100.00;96721.66;10619102;27;20278;-67
2023/06/06 14:11:26;;;;;;;5.50;3.20;;;;;;;17.28;100.00;96714.84;10606580;27;20658;-68
2023/06/06 14:16:27;;;;;;;4.78;3.60;;;;;;;17.11;100.00;96709.06;10579499;27;20249;-68
2023/06/06 14:26:42;;;;;;;3.72;3.42;;;;;;;17.19;100.00;96698.31;10555873;28;20178;-68
2023/06/06 14:31:42;;;;;;;4.97;3.65;;;;;;;17.10;100.00;96702.13;10553422;28;20215;-68
2023/06/06 14:36:43;;;;;;;5.72;3.67;;;;;;;16.88;100.00;96698.81;10552683;28;20197;-68
2023/06/06 14:41:43;;;;;;;4.65;3.88;;;;;;;16.95;100.00;96704.91;10538117;28;20281;-68
2023/06/06 14:46:43;;;;;;;4.20;3.80;;;;;;;17.25;100.00;96704.63;10532236;28;20225;-68
2023/06/06 14:51:44;;;;;;;5.53;3.72;;;;;;;18.24;100.00;96697.88;10532803;28;20219;-67
2023/06/06 14:56:44;;;;;;;8.68;4.35;;;;;;;19.48;100.00;96676.63;10533423;28;20216;-67
2023/06/06 15:01:44;;;;;;;4.63;4.13;;;;;;;19.22;95.65;96673.09;10532564;28;20309;-68
2023/06/06 15:06:46;;;;;;;6.97;4.13;;;;;;;19.15;97.95;96679.47;10569857;28;20578;-68
2023/06/06 15:11:50;;;;;;;8.98;4.75;;;;;;;18.72;98.44;96670.22;10574562;28;20206;-68
2023/06/06 15:16:50;;;;;;;6.85;5.38;;;;;;;18.44;100.00;96689.88;10578845;28;20204;-68
2023/06/06 15:21:50;;;;;;;10.95;5.05;;;;;;;17.66;100.00;96690.47;10583130;28;20344;-68
2023/06/06 15:26:56;;;;;;;7.40;5.75;;;;;;;17.21;100.00;96698.94;10582827;28;20608;-68
2023/06/06 15:31:58;;;;;;;8.05;5.00;;;;;;;17.34;100.00;96690.22;10583101;28;20259;-68
2023/06/06 15:36:58;;;;;;;7.28;5.18;;;;;;;17.53;100.00;96680.66;10581102;28;20198;-68
2023/06/06 15:41:59;;;;;;;8.60;5.45;;;;;;;17.97;100.00;96695.19;10581843;28;20229;-69
2023/06/06 15:46:59;;;;;;;8.63;5.75;;;;;;;18.44;100.00;96684.56;10602858;27;20230;-68
2023/06/06 15:52:00;;;;;;;9.00;5.38;;;;;;;18.92;100.00;96664.06;10624256;27;20228;-68
2023/06/06 15:57:00;;;;;;;7.93;5.68;;;;;;;18.63;99.31;96663.50;10559534;27;20280;-69
2023/06/06 16:02:01;;;;;;;8.35;5.82;;;;;;;18.66;99.38;96655.94;10539576;28;20301;-68
2023/06/06 16:07:02;;;;;;;10.77;5.70;;;;;;;17.98;96.08;96643.03;10544217;28;20189;-68
2023/06/06 16:12:02;;;;;;;8.88;5.93;;;;;;;18.37;99.04;96673.16;10581521;28;20206;-68
2023/06/06 16:17:03;;;;;;;12.23;6.15;;;;;;;17.93;100.00;96679.91;10543337;28;20194;-68
2023/06/06 16:22:03;;;;;;;8.50;5.72;;;;;;;18.14;100.00;96677.03;10547872;28;20241;-69
2023/06/06 16:27:06;;;;;;;10.68;6.55;;;;;;;18.00;100.00;96691.34;10561374;28;20182;-68
2023/06/06 16:32:07;;;;;;;6.22;4.57;;;;;;;18.21;100.00;96695.63;10559403;28;20199;-69
2023/06/06 16:37:07;;;;;;;10.18;5.38;;;;;;;17.88;100.00;96698.25;10563688;28;20185;-68
2023/06/06 16:42:07;;;;;;;10.38;5.43;;;;;;;17.79;100.00;96694.97;10580138;28;20597;-69
2023/06/06 16:47:08;;;;;;;9.50;5.90;;;;;;;17.42;100.00;96694.50;10580741;28;20842;-68
2023/06/06 16:52:08;;;;;;;14.13;6.18;;;;;;;17.20;100.00;96707.09;10580239;28;20210;-68
2023/06/06 16:57:09;;;;;;;7.28;5.55;;;;;;;17.18;100.00;96703.78;10580517;28;20339;-68
2023/06/06 17:02:11;;;;;;;8.52;6.20;;;;;;;16.67;100.00;96712.91;10580080;28;20221;-68
2023/06/06 17:07:11;;;;;;;9.13;6.07;;;;;;;16.46;100.00;96716.44;10569588;28;20600;-68
2023/06/06 17:12:11;;;;;;;9.48;6.70;;;;;;;16.38;100.00;96714.75;10553802;28;20284;-68
2023/06/06 17:17:12;;;;;;;9.93;6.82;;;;;;;16.21;100.00;96711.59;10556667;28;20182;-68
2023/06/06 17:22:12;;;;;;;9.00;6.30;;;;;;;16.21;100.00;96711.59;10557741;28;20226;-68
2023/06/06 17:27:13;;;;;;;8.23;7.32;;;;;;;16.22;100.00;96719.31;10556478;28;20186;-68
2023/06/06 17:32:13;;;;;;;9.52;6.78;;;;;;;16.39;100.00;96719.84;10556436;28;20209;-69
2023/06/06 17:37:14;;;;;;;7.38;6.43;;;;;;;16.45;100.00;96717.44;10539116;28;20198;-68
2023/06/06 17:42:16;;;;;;;8.02;6.30;;;;;;;16.29;100.00;96715.91;10537136;28;20226;-68
2023/06/06 17:47:16;;;;;;;7.40;6.10;;;;;;;16.26;100.00;96714.47;10537096;28;20194;-68
2023/06/06 17:52:16;;;;;;;10.80;6.85;;;;;;;16.13;100.00;96717.03;10539005;28;20209;-69
2023/06/06 17:57:17;;;;;;;7.43;6.63;;;;;;;16.23;100.00;96722.78;10537823;28;20215;-68
2023/06/06 18:02:17;;;;;;;8.40;7.40;;;;;;;15.95;100.00;96723.56;10540782;28;20313;-68
2023/06/06 18:07:18;;;;;;;10.90;7.10;;;;;;;16.09;100.00;96724.50;10536380;28;20228;-68
2023/06/06 18:12:18;;;;;;;8.23;6.68;;;;;;;16.12;100.00;96725.94;10535999;28;20206;-68
2023/06/06 18:17:19;;;;;;;9.10;7.10;;;;;;;16.04;100.00;96730.34;10536296;28;20198;-67
2023/06/06 18:22:20;;;;;;;9.18;6.70;;;;;;;16.01;100.00;96724.66;10535404;28;20351;-68
2023/06/06 18:27:20;;;;;;;9.13;6.15;;;;;;;15.97;100.00;96736.59;10536152;28;20190;-68
2023/06/06 18:32:20;;;;;;;9.77;6.40;;;;;;;15.99;100.00;96739.88;10535343;28;20210;-68
2023/06/06 18:37:21;;;;;;;10.23;7.03;;;;;;;15.80;100.00;96736.03;10535474;28;20230;-68
2023/06/06 18:42:21;;;;;;;8.52;6.38;;;;;;;15.65;100.00;96744.81;10535122;28;20332;-68
2023/06/06 18:47:22;;;;;;;8.05;6.53;;;;;;;15.67;100.00;96745.44;10535074;28;20248;-68
2023/06/06 18:52:22;;;;;;;7.47;6.65;;;;;;;15.72;100.00;96744.06;10534206;28;20206;-67
2023/06/06 18:57:23;;;;;;;7.53;6.78;;;;;;;15.65;100.00;96749.25;10534727;28;20205;-67
2023/06/06 19:02:23;;;;;;;8.18;7.38;;;;;;;15.49;100.00;96759.06;10534717;28;20222;-67
2023/06/06 19:07:23;;;;;;;10.35;7.72;;;;;;;15.56;100.00;96767.06;10534828;28;20197;-66
2023/06/06 19:12:24;;;;;;;10.90;7.15;;;;;;;15.65;100.00;96773.88;10535199;28;20210;-67
2023/06/06 19:17:24;;;;;;;9.05;7.72;;;;;;;15.65;100.00;96778.31;10535302;28;20236;-67
2023/06/06 19:22:25;;;;;;;9.38;7.90;;;;;;;15.24;100.00;96778.88;10529127;22;20349;-65
2023/06/06 19:27:27;;;;;;;8.63;7.82;;;;;;;15.18;100.00;96787.53;10492685;28;20207;-65
2023/06/06 19:32:27;;;;;;;10.18;8.13;;;;;;;15.32;100.00;96799.88;10493394;28;20210;-65
2023/06/06 19:37:28;;;;;;;9.48;7.43;;;;;;;15.26;100.00;96804.06;10493107;28;20331;-65
2023/06/06 19:42:28;;;;;;;8.38;7.57;;;;;;;15.19;100.00;96805.81;10492591;28;20242;-65
2023/06/06 19:47:28;;;;;;;9.10;7.88;;;;;;;15.10;100.00;96820.09;10492627;28;20245;-65
2023/06/06 19:52:29;;;;;;;8.80;7.90;;;;;;;15.06;100.00;96818.84;10492026;28;20211;-64
2023/06/06 19:57:29;;;;;;;9.80;8.65;;;;;;;14.83;100.00;96819.72;10491898;28;20273;-65
2023/06/06 20:02:30;;;;;;;11.93;9.30;;;;;;;14.78;100.00;96816.81;10495020;28;20973;-65
2023/06/06 20:07:30;;;;;;;9.98;8.98;;;;;;;14.68;100.00;96824.97;10499349;28;20708;-65
2023/06/06 20:12:31;;;;;;;12.60;9.25;;;;;;;14.63;100.00;96836.06;10498950;28;20212;-64
2023/06/06 20:17:31;;;;;;;11.32;10.23;;;;;;;14.69;100.00;96844.28;10498836;28;20224;-65
2023/06/06 20:22:31;;;;;;;10.05;8.38;;;;;;;14.54;100.00;96845.00;10498436;28;20227;-64
2023/06/06 20:27:33;;;;;;;11.65;9.98;;;;;;;14.59;100.00;96847.94;10498661;28;20206;-65
2023/06/06 20:32:34;;;;;;;10.70;9.57;;;;;;;14.58;100.00;96846.31;10511361;28;20617;-64
2023/06/06 20:37:36;;;;;;;12.05;9.32;;;;;;;14.62;100.00;96854.69;10539721;28;20247;-63
2023/06/06 20:42:36;;;;;;;10.38;9.32;;;;;;;14.71;100.00;96847.53;10536598;28;20211;-65
2023/06/06 20:47:37;;;;;;;11.23;8.95;;;;;;;14.54;100.00;96857.38;10526168;28;20186;-65
2023/06/06 20:52:37;;;;;;;9.50;8.50;;;;;;;14.56;100.00;96852.75;10516499;28;20677;-64
2023/06/06 20:57:38;;;;;;;10.75;9.65;;;;;;;14.39;100.00;96849.44;10518453;28;20533;-64
2023/06/06 21:02:39;;;;;;;13.90;9.60;;;;;;;14.24;100.00;96859.91;10530751;28;20582;-65
2023/06/06 21:07:39;;;;;;;14.13;11.23;;;;;;;14.20;100.00;96870.00;10538946;28;20601;-65
2023/06/06 21:12:40;;;;;;;13.60;10.57;;;;;;;14.14;100.00;96875.16;10537720;28;20229;-64
2023/06/06 21:17:40;;;;;;;12.43;10.98;;;;;;;14.13;100.00;96876.13;10538711;28;20193;-64
2023/06/06 21:22:41;;;;;;;12.43;11.23;;;;;;;14.10;100.00;96879.94;10538432;28;20234;-64
2023/06/06 21:27:42;;;;;;;15.40;12.93;;;;;;;13.72;100.00;96885.06;10538396;28;20195;-65
2023/06/06 21:32:42;;;;;;;17.40;14.70;;;;;;;13.79;100.00;96896.56;10538509;28;20293;-65
2023/06/06 21:37:42;;;;;;;13.05;11.75;;;;;;;13.83;100.00;96892.59;10538334;28;20203;-64
2023/06/06 21:42:46;;;;;;;14.52;13.02;;;;;;;13.99;100.00;96907.50;10537815;28;20226;-64
2023/06/06 21:47:46;;;;;;;13.50;11.88;;;;;;;13.96;100.00;96893.84;10538182;28;20183;-65
2023/06/06 21:52:47;;;;;;;14.90;12.02;;;;;;;13.94;100.00;96890.59;10537566;28;20214;-65
2023/06/06 21:57:47;;;;;;;15.10;12.52;;;;;;;13.80;100.00;96892.09;10538552;28;20214;-65
2023/06/06 22:02:48;;;;;;;18.48;13.93;;;;;;;13.66;100.00;96906.81;10537632;28;20226;-66
2023/06/06 22:07:48;;;;;;;19.98;15.80;;;;;;;13.60;100.00;96910.13;10537603;28;20195;-65
2023/06/06 22:12:49;;;;;;;18.30;14.13;;;;;;;13.75;100.00;96916.31;10537087;28;20292;-64
2023/06/06 22:17:49;;;;;;;17.45;13.75;;;;;;;13.79;100.00;96909.72;10536732;28;20213;-65
2023/06/06 22:22:50;;;;;;;18.17;14.93;;;;;;;13.78;100.00;96910.72;10536443;28;20652;-66
2023/06/06 22:27:51;;;;;;;15.63;13.68;;;;;;;13.77;100.00;96905.63;10536228;28;20186;-65
2023/06/06 22:32:51;;;;;;;13.80;12.25;;;;;;;13.64;100.00;96887.75;10536495;28;20202;-66
2023/06/06 22:37:56;;;;;;;18.02;11.40;;;;;;;13.48;100.00;96878.13;10536332;28;20198;-66
2023/06/06 22:42:56;;;;;;;13.20;11.32;;;;;;;13.33;100.00;96862.19;10535765;28;20225;-65
2023/06/06 22:47:57;;;;;;;12.88;10.15;;;;;;;13.28;100.00;96852.19;10536321;28;20564;-65
2023/06/06 22:52:57;;;;;;;13.98;11.85;;;;;;;13.36;100.00;96848.72;10535695;28;20632;-65
2023/06/06 22:57:57;;;;;;;13.85;9.18;;;;;;;13.05;100.00;96856.50;10536098;28;20628;-65
2023/06/06 23:02:58;;;;;;;16.40;8.32;;;;;;;12.74;100.00;96860.69;10535498;28;20591;-63